In Rescue
 
Open Full Screen Window  High Contrast Mode
July 23, 2019 12:42 AM EDT
Weather Information
Wind Direction
  ---
Wind Speed
  00 kt (0 mph)
Wind Gust
  00 kt (0 mph)
Altimeter
30.07 in
Visibility
10 SM
Temperature
14° C
57° F
Dewpoint
14° C
57° F
Humidity
100%
1hr Rain Fall
00.00 in.
24hr Rain Fall
00.00 in.
Sky Condition
Scattered @ 6,500 ft
VFR

METAR KLDM 230442Z AUTO 00000KT 10SM SCT065 14/14 A3007 RMK AO2 T01420137

FAA Disclaimer: The data displayed is for advisory purposes only and is not to be used for flight planning or operations.